Time;durP1;ratioP1;P1;durP2;ratioP2;P2;SDS_P1;SDS_P2;PMS_P1;PMS_P2;Temp;Humidity;BMP_temperature;BMP_pressure;BME280_temperature;BME280_humidity;BME280_pressure;Samples;Min_cycle;Max_cycle;Signal;HPM_P1;HPM_P2
2021/12/19 00:04:14;;;;;;;120.38;34.92;;;;;;;7.39;100.00;102580.94;8363671;28;20041;-63
2021/12/19 00:11:32;;;;;;;113.50;35.67;;;;;;;7.40;100.00;102574.59;8345971;28;20546;-63
2021/12/19 00:15:33;;;;;;;129.48;37.83;;;;;;;7.39;100.00;102568.34;8344840;28;20135;-63
2021/12/19 00:19:33;;;;;;;126.80;38.08;;;;;;;7.38;100.00;102566.59;8349954;28;20052;-63
2021/12/19 00:23:34;;;;;;;129.35;39.45;;;;;;;7.40;100.00;102569.22;8366012;28;20448;-63
2021/12/19 00:27:34;;;;;;;126.10;36.20;;;;;;;7.43;100.00;102561.88;8344335;28;20044;-63
2021/12/19 00:31:34;;;;;;;125.95;38.08;;;;;;;7.40;100.00;102559.34;8354482;28;20040;-63
2021/12/19 00:35:35;;;;;;;130.73;37.78;;;;;;;7.41;100.00;102555.69;8371583;28;20029;-63
2021/12/19 00:39:35;;;;;;;129.60;39.20;;;;;;;7.43;100.00;102561.88;8364825;28;20041;-63
2021/12/19 00:43:45;;;;;;;128.23;38.72;;;;;;;7.43;100.00;102559.19;8344234;28;20559;-63
2021/12/19 00:47:46;;;;;;;133.43;38.65;;;;;;;7.45;100.00;102545.66;8341985;28;20033;-63
2021/12/19 00:51:47;;;;;;;139.05;38.97;;;;;;;7.46;100.00;102542.91;8357021;28;20037;-63
2021/12/19 00:55:47;;;;;;;128.85;37.15;;;;;;;7.50;100.00;102544.50;8330969;28;20086;-63
2021/12/19 00:59:48;;;;;;;126.55;38.15;;;;;;;7.44;100.00;102528.63;8341026;28;20033;-63
2021/12/19 01:03:48;;;;;;;136.95;38.85;;;;;;;7.49;100.00;102532.00;8369645;28;20020;-63
2021/12/19 01:07:49;;;;;;;132.95;39.15;;;;;;;7.50;100.00;102531.03;8376347;28;20039;-63
2021/12/19 01:11:49;;;;;;;137.63;39.78;;;;;;;7.45;100.00;102530.41;8364579;28;20047;-63
2021/12/19 01:15:51;;;;;;;130.25;39.55;;;;;;;7.50;100.00;102528.34;8352956;28;20037;-63
2021/12/19 01:19:51;;;;;;;136.20;39.45;;;;;;;7.51;100.00;102526.53;8345639;28;20515;-63
2021/12/19 01:23:52;;;;;;;133.80;38.53;;;;;;;7.51;100.00;102524.69;8364415;28;20459;-63
2021/12/19 01:27:53;;;;;;;146.43;40.30;;;;;;;7.50;100.00;102532.84;8361734;28;20032;-63
2021/12/19 01:31:53;;;;;;;130.13;39.25;;;;;;;7.51;100.00;102535.47;8373411;28;20028;-63
2021/12/19 01:35:54;;;;;;;154.70;40.05;;;;;;;7.50;100.00;102525.66;8365738;28;20044;-63
2021/12/19 01:39:54;;;;;;;140.05;40.58;;;;;;;7.52;100.00;102526.47;8366759;28;20052;-63
2021/12/19 01:43:56;;;;;;;141.60;40.75;;;;;;;7.51;100.00;102522.00;8339495;28;20037;-63
2021/12/19 01:47:57;;;;;;;130.02;38.28;;;;;;;7.53;100.00;102528.19;8348500;28;20532;-63
2021/12/19 01:51:58;;;;;;;132.63;37.15;;;;;;;7.51;100.00;102524.69;8358778;28;20119;-63
2021/12/19 01:55:59;;;;;;;125.78;33.97;;;;;;;7.52;100.00;102510.31;8345058;28;20075;-63
2021/12/19 01:59:59;;;;;;;127.63;34.15;;;;;;;7.52;100.00;102504.94;8341562;28;20041;-63
2021/12/19 02:03:59;;;;;;;135.52;34.25;;;;;;;7.52;100.00;102499.56;8373431;28;20506;-63
2021/12/19 02:08:01;;;;;;;139.93;33.75;;;;;;;7.51;100.00;102492.41;8373682;28;20044;-63
2021/12/19 02:12:03;;;;;;;139.60;33.95;;;;;;;7.49;100.00;102490.75;8375294;28;20048;-63
2021/12/19 02:16:04;;;;;;;131.27;29.60;;;;;;;7.55;100.00;102498.53;8375199;28;20075;-63
2021/12/19 02:20:09;;;;;;;121.63;29.30;;;;;;;7.54;100.00;102484.19;8369641;28;20041;-63
2021/12/19 02:24:10;;;;;;;114.20;26.70;;;;;;;7.57;100.00;102481.34;8354012;28;20485;-63
2021/12/19 02:28:12;;;;;;;112.18;24.75;;;;;;;7.49;100.00;102480.84;8341508;28;20404;-63
2021/12/19 02:32:12;;;;;;;113.22;25.95;;;;;;;7.50;100.00;102474.53;8358536;28;20036;-63
2021/12/19 02:40:36;;;;;;;106.25;24.05;;;;;;;7.55;100.00;102472.50;8350689;28;20060;-63
2021/12/19 02:49:05;;;;;;;85.93;21.08;;;;;;;7.55;100.00;102467.09;8406501;27;20454;-63
2021/12/19 02:53:05;;;;;;;91.47;21.08;;;;;;;7.56;100.00;102463.47;8401638;27;20397;-64
2021/12/19 02:57:06;;;;;;;80.90;21.98;;;;;;;7.58;100.00;102461.59;8402767;27;20044;-63
2021/12/19 03:01:11;;;;;;;92.25;23.98;;;;;;;7.56;100.00;102444.63;8402290;27;20082;-64
2021/12/19 03:05:11;;;;;;;95.80;24.05;;;;;;;7.52;100.00;102445.72;8402215;27;20060;-64
2021/12/19 03:09:14;;;;;;;85.45;22.42;;;;;;;7.50;100.00;102447.59;8399948;27;20057;-63
2021/12/19 03:18:07;;;;;;;87.15;22.73;;;;;;;7.51;100.00;102438.56;8392656;27;20033;-64
2021/12/19 03:21:56;;;;;;;81.00;23.05;;;;;;;7.45;100.00;102446.97;8354248;28;20059;-63
2021/12/19 03:25:57;;;;;;;95.43;23.27;;;;;;;7.44;100.00;102430.91;8361410;28;20040;-63
2021/12/19 03:29:57;;;;;;;80.93;22.92;;;;;;;7.52;100.00;102429.56;8364743;28;20033;-63
2021/12/19 03:33:57;;;;;;;85.00;23.60;;;;;;;7.51;100.00;102433.19;8382297;28;20447;-63
2021/12/19 03:38:01;;;;;;;93.25;21.48;;;;;;;7.51;100.00;102422.44;8384526;28;20056;-63
2021/12/19 03:42:02;;;;;;;90.32;23.25;;;;;;;7.43;100.00;102434.53;8384283;28;20089;-64
2021/12/19 03:46:03;;;;;;;93.68;23.48;;;;;;;7.53;100.00;102425.03;8384191;28;20127;-64
2021/12/19 03:50:05;;;;;;;90.47;23.63;;;;;;;7.51;100.00;102422.44;8384169;28;20044;-63
2021/12/19 03:54:06;;;;;;;97.97;22.83;;;;;;;7.50;100.00;102418.00;8382590;28;20047;-63
2021/12/19 03:58:06;;;;;;;95.80;24.15;;;;;;;7.56;100.00;102415.00;8373194;28;20029;-64
2021/12/19 04:02:06;;;;;;;90.82;23.08;;;;;;;7.54;100.00;102422.28;8362222;28;20033;-64
2021/12/19 04:06:07;;;;;;;89.05;22.73;;;;;;;7.52;100.00;102410.75;8361746;28;20120;-64
2021/12/19 04:10:08;;;;;;;91.93;22.75;;;;;;;7.50;100.00;102404.53;8361624;28;20029;-64
2021/12/19 04:14:08;;;;;;;92.68;22.52;;;;;;;7.48;100.00;102401.03;8360369;28;20033;-64
2021/12/19 04:18:08;;;;;;;77.97;19.42;;;;;;;7.53;100.00;102399.00;8344912;28;20147;-64
2021/12/19 04:22:09;;;;;;;75.75;18.67;;;;;;;7.48;100.00;102401.03;8352634;28;20476;-64
2021/12/19 04:26:09;;;;;;;76.75;18.58;;;;;;;7.55;100.00;102397.13;8361199;28;20036;-63
2021/12/19 04:30:13;;;;;;;70.28;17.98;;;;;;;7.53;100.00;102382.88;8360121;28;20044;-64
2021/12/19 04:34:14;;;;;;;70.85;16.60;;;;;;;7.51;100.00;102384.75;8327599;28;20033;-64
2021/12/19 04:39:24;;;;;;;65.22;17.75;;;;;;;7.54;100.00;102373.84;8326648;28;20654;-64
2021/12/19 05:00:05;;;;;;;84.32;18.58;;;;;;;7.54;100.00;102351.44;8332065;28;20349;-64
2021/12/19 05:04:11;;;;;;;75.85;18.95;;;;;;;7.58;100.00;102348.53;8329704;28;20033;-64
2021/12/19 05:16:52;;;;;;;68.82;17.30;;;;;;;7.58;100.00;102339.56;8325390;28;20029;-64
2021/12/19 05:21:05;;;;;;;71.47;17.42;;;;;;;7.47;100.00;102334.72;8330871;28;20489;-64
2021/12/19 05:25:14;;;;;;;71.13;17.35;;;;;;;7.44;100.00;102329.50;8341391;28;20030;-64
2021/12/19 05:29:16;;;;;;;56.33;15.65;;;;;;;7.42;100.00;102326.03;8325994;28;20115;-64
2021/12/19 05:33:17;;;;;;;57.80;15.93;;;;;;;7.44;100.00;102340.25;8351965;28;20075;-64
2021/12/19 05:45:58;;;;;;;64.10;16.70;;;;;;;7.44;100.00;102329.50;8358216;28;20079;-63
2021/12/19 05:49:58;;;;;;;52.63;15.57;;;;;;;7.42;100.00;102323.34;8358785;28;20041;-63
2021/12/19 05:53:59;;;;;;;62.65;16.08;;;;;;;7.44;100.00;102332.19;8357786;28;20090;-63
2021/12/19 05:57:59;;;;;;;59.70;18.05;;;;;;;7.47;100.00;102328.47;8337558;28;20485;-63
2021/12/19 06:02:00;;;;;;;63.85;16.52;;;;;;;7.46;100.00;102334.81;8354562;28;20029;-63
2021/12/19 06:06:00;;;;;;;56.17;15.88;;;;;;;7.42;100.00;102331.41;8358013;28;20233;-63
2021/12/19 06:10:00;;;;;;;56.13;15.93;;;;;;;7.40;100.00;102327.91;8357920;28;20060;-63
2021/12/19 06:14:01;;;;;;;55.47;15.15;;;;;;;7.41;100.00;102324.28;8356398;28;20049;-63
2021/12/19 06:18:03;;;;;;;51.92;15.70;;;;;;;7.43;100.00;102321.50;8356280;28;20057;-63
2021/12/19 06:22:05;;;;;;;58.83;15.75;;;;;;;7.48;100.00;102309.56;8357328;28;20037;-63
2021/12/19 06:26:10;;;;;;;56.95;16.75;;;;;;;7.51;100.00;102309.41;8357355;28;20041;-63
2021/12/19 06:30:11;;;;;;;58.78;18.02;;;;;;;7.53;100.00;102302.13;8357637;28;20037;-63
2021/12/19 06:34:11;;;;;;;54.45;16.20;;;;;;;7.53;100.00;102302.13;8330271;28;20041;-63
2021/12/19 06:38:13;;;;;;;53.83;16.08;;;;;;;7.54;100.00;102303.84;8332657;28;20036;-63
2021/12/19 06:42:14;;;;;;;54.30;16.52;;;;;;;7.52;100.00;102304.91;8337256;28;20036;-63
2021/12/19 06:46:15;;;;;;;56.92;15.98;;;;;;;7.55;100.00;102305.63;8330464;28;20038;-63
2021/12/19 06:50:17;;;;;;;55.90;16.35;;;;;;;7.55;100.00;102289.47;8342584;28;20037;-63
2021/12/19 06:54:17;;;;;;;52.70;15.07;;;;;;;7.55;100.00;102293.97;8329445;28;20053;-63
2021/12/19 06:58:18;;;;;;;47.55;14.50;;;;;;;7.47;100.00;102290.78;8334176;28;20132;-63
2021/12/19 07:02:18;;;;;;;49.67;14.27;;;;;;;7.55;100.00;102285.91;8334104;28;20052;-63
2021/12/19 07:06:19;;;;;;;51.33;13.30;;;;;;;7.53;100.00;102274.34;8328102;28;20067;-63
2021/12/19 07:10:19;;;;;;;50.05;13.93;;;;;;;7.56;100.00;102285.81;8344485;28;20040;-63
2021/12/19 07:14:20;;;;;;;53.55;14.20;;;;;;;7.54;100.00;102276.94;8333167;28;20339;-63
2021/12/19 07:18:21;;;;;;;56.45;14.40;;;;;;;7.56;100.00;102285.81;8338996;28;20045;-63
2021/12/19 07:22:21;;;;;;;43.58;13.30;;;;;;;7.57;100.00;102282.16;8347279;28;20049;-63
2021/12/19 07:26:22;;;;;;;49.10;12.90;;;;;;;7.58;100.00;102278.56;8345779;28;20055;-64
2021/12/19 07:30:25;;;;;;;39.38;10.65;;;;;;;7.58;100.00;102283.94;8339942;28;20101;-63
2021/12/19 07:34:31;;;;;;;46.50;13.45;;;;;;;7.59;100.00;102269.53;8328869;28;20044;-63
2021/12/19 07:38:39;;;;;;;46.90;12.10;;;;;;;7.58;100.00;102278.56;8346182;28;20048;-63
2021/12/19 07:42:40;;;;;;;45.63;11.95;;;;;;;7.57;100.00;102274.09;8351989;28;20068;-63
2021/12/19 07:46:40;;;;;;;49.25;12.38;;;;;;;7.58;100.00;102267.78;8332574;28;20124;-63
2021/12/19 07:50:41;;;;;;;39.22;10.75;;;;;;;7.60;100.00;102270.41;8340075;28;20044;-63
2021/12/19 07:54:41;;;;;;;44.22;11.30;;;;;;;7.62;100.00;102269.38;8353235;28;20040;-63
2021/12/19 07:58:41;;;;;;;42.70;11.32;;;;;;;7.66;100.00;102264.69;8358504;28;20055;-63
2021/12/19 08:02:45;;;;;;;40.20;10.68;;;;;;;7.65;100.00;102261.13;8361839;28;20060;-63
2021/12/19 08:06:45;;;;;;;37.63;10.63;;;;;;;7.66;100.00;102260.16;8350605;28;20029;-63
2021/12/19 08:15:00;;;;;;;41.05;11.50;;;;;;;7.61;100.00;102251.47;8404773;27;20473;-63
2021/12/19 08:19:00;;;;;;;42.70;10.73;;;;;;;7.61;100.00;102251.47;8387448;28;20040;-63
2021/12/19 08:23:01;;;;;;;45.08;11.40;;;;;;;7.61;100.00;102247.91;8374271;28;20115;-63
2021/12/19 08:27:01;;;;;;;51.90;12.82;;;;;;;7.58;100.00;102251.63;8385377;28;20037;-63
2021/12/19 08:31:03;;;;;;;50.95;12.07;;;;;;;7.60;100.00;102249.72;8392680;28;20041;-63
2021/12/19 08:35:06;;;;;;;58.22;13.20;;;;;;;7.62;100.00;102253.22;8366946;28;20508;-63
2021/12/19 08:39:10;;;;;;;43.63;11.90;;;;;;;7.55;100.00;102241.03;8370177;28;20066;-63
2021/12/19 08:43:11;;;;;;;47.33;11.93;;;;;;;7.62;100.00;102249.63;8378297;28;20139;-63
2021/12/19 08:47:12;;;;;;;44.22;11.77;;;;;;;7.63;100.00;102246.88;8388392;28;20050;-63
2021/12/19 08:51:13;;;;;;;41.95;10.30;;;;;;;7.68;100.00;102255.59;8394324;28;20044;-63
2021/12/19 08:55:13;;;;;;;41.15;10.25;;;;;;;7.72;100.00;102259.84;8394696;28;20036;-63
2021/12/19 08:59:14;;;;;;;41.05;10.35;;;;;;;7.70;100.00;102256.38;8392823;28;20428;-63
2021/12/19 09:03:14;;;;;;;33.08;9.80;;;;;;;7.70;100.00;102256.38;8368188;28;20041;-63
2021/12/19 09:07:17;;;;;;;29.67;9.23;;;;;;;7.65;100.00;102254.88;8360926;28;20047;-63
2021/12/19 09:11:18;;;;;;;31.05;8.55;;;;;;;7.66;100.00;102254.78;8364769;28;20033;-62
2021/12/19 09:15:19;;;;;;;32.50;9.63;;;;;;;7.66;100.00;102243.16;8378291;28;20060;-61
2021/12/19 09:19:21;;;;;;;29.45;8.10;;;;;;;7.73;100.00;102248.16;8372004;28;20060;-62
2021/12/19 09:23:22;;;;;;;22.33;6.43;;;;;;;7.74;100.00;102246.31;8384783;28;20069;-61
2021/12/19 09:27:22;;;;;;;19.10;7.00;;;;;;;7.79;100.00;102250.53;8339637;28;20393;-62
2021/12/19 09:31:23;;;;;;;17.63;5.45;;;;;;;7.79;100.00;102250.53;8340735;28;20064;-61
2021/12/19 09:35:23;;;;;;;17.40;5.95;;;;;;;7.91;100.00;102249.00;8340736;28;20095;-61
2021/12/19 09:39:24;;;;;;;18.90;5.75;;;;;;;7.89;100.00;102238.31;8338938;28;20042;-61
2021/12/19 09:43:56;;;;;;;17.98;6.40;;;;;;;7.92;100.00;102239.94;8340835;28;20663;-61
2021/12/19 09:47:45;;;;;;;17.42;6.63;;;;;;;7.96;100.00;102231.63;8347023;28;20037;-61
2021/12/19 09:51:49;;;;;;;16.55;4.68;;;;;;;7.92;100.00;102243.53;8343609;28;20041;-61
2021/12/19 09:55:50;;;;;;;;;;;;;;;7.95;100.00;102235.28;8340140;28;20041;-61
2021/12/19 09:59:51;;;;;;;11.02;3.95;;;;;;;7.93;100.00;102237.19;8339519;28;20020;-61
2021/12/19 10:03:51;;;;;;;15.98;4.05;;;;;;;7.98;100.00;102235.13;8338096;28;20033;-61
2021/12/19 10:07:56;;;;;;;10.23;3.97;;;;;;;7.98;100.00;102227.03;8339721;28;20033;-61
2021/12/19 10:12:10;;;;;;;11.85;4.32;;;;;;;7.96;100.00;102220.84;8338293;28;20062;-61
2021/12/19 10:16:29;;;;;;;8.15;3.70;;;;;;;7.95;100.00;102220.94;8339375;28;20045;-61
2021/12/19 10:20:52;;;;;;;13.80;5.13;;;;;;;7.94;100.00;102206.59;8324628;28;20037;-61
2021/12/19 10:24:55;;;;;;;11.48;4.88;;;;;;;7.95;100.00;102196.72;8297716;28;20033;-64
2021/12/19 10:28:57;;;;;;;12.82;4.57;;;;;;;7.95;100.00;102184.13;8299353;28;20076;-64
2021/12/19 10:37:34;;;;;;;20.40;5.82;;;;;;;8.03;100.00;102178.31;8348048;27;20787;-65
2021/12/19 10:41:39;;;;;;;20.60;5.68;;;;;;;8.01;100.00;102164.94;8341051;28;20041;-65
2021/12/19 10:45:52;;;;;;;13.82;5.13;;;;;;;8.00;100.00;102160.47;8344069;28;20037;-65
2021/12/19 10:49:53;;;;;;;11.45;4.22;;;;;;;8.03;100.00;102163.00;8344680;28;20044;-65
2021/12/19 10:53:57;;;;;;;14.82;4.82;;;;;;;8.08;100.00;102160.06;8344928;28;20068;-65
2021/12/19 10:57:57;;;;;;;15.27;4.85;;;;;;;8.09;100.00;102151.91;8345489;28;20512;-65
2021/12/19 11:01:58;;;;;;;11.75;4.35;;;;;;;8.09;100.00;102154.59;8345445;28;20405;-65
2021/12/19 11:05:59;;;;;;;11.13;4.65;;;;;;;8.07;100.00;102134.97;8344847;28;20411;-65
2021/12/19 11:09:59;;;;;;;14.55;4.35;;;;;;;8.06;100.00;102138.59;8345158;28;20041;-65
2021/12/19 11:14:02;;;;;;;19.98;7.72;;;;;;;8.06;100.00;102130.50;8343200;28;20052;-65
2021/12/19 11:18:03;;;;;;;16.50;5.32;;;;;;;8.06;100.00;102114.34;8338055;28;20078;-65
2021/12/19 11:22:04;;;;;;;16.40;6.53;;;;;;;8.10;100.00;102115.06;8340689;28;20417;-65
2021/12/19 11:26:05;;;;;;;13.63;5.10;;;;;;;8.17;100.00;102100.28;8340704;28;20114;-65
2021/12/19 11:30:06;;;;;;;14.35;5.43;;;;;;;8.16;100.00;102103.06;8343095;28;20056;-64
2021/12/19 11:34:32;;;;;;;13.27;5.97;;;;;;;8.18;100.00;102093.09;8342651;28;20647;-63
2021/12/19 11:38:34;;;;;;;18.02;5.97;;;;;;;8.14;100.00;102089.69;8332549;28;20131;-63
2021/12/19 11:42:39;;;;;;;11.20;5.75;;;;;;;8.23;100.00;102088.34;8336970;28;20221;-63
2021/12/19 11:46:52;;;;;;;13.63;5.75;;;;;;;8.10;100.00;102088.13;8328201;28;20045;-63
2021/12/19 11:50:56;;;;;;;23.55;7.20;;;;;;;8.11;100.00;102086.31;8304064;28;20563;-63
2021/12/19 11:55:18;;;;;;;15.30;6.07;;;;;;;8.06;100.00;102086.56;8320872;28;20116;-64
2021/12/19 11:59:20;;;;;;;18.95;7.63;;;;;;;8.09;100.00;102075.63;8311956;28;20430;-64
2021/12/19 12:03:42;;;;;;;15.18;6.80;;;;;;;8.17;100.00;102064.41;8319528;28;20044;-64
2021/12/19 12:12:20;;;;;;;13.63;5.47;;;;;;;8.17;100.00;102042.88;8391613;27;20417;-63
2021/12/19 12:20:38;;;;;;;15.90;5.88;;;;;;;8.14;100.00;102048.44;8396120;27;20435;-63
2021/12/19 12:25:05;;;;;;;21.02;7.28;;;;;;;8.19;100.00;102040.94;8393243;27;20043;-63
2021/12/19 12:29:06;;;;;;;9.52;5.18;;;;;;;8.17;100.00;102029.41;8382092;27;20103;-63
2021/12/19 12:33:10;;;;;;;14.35;6.97;;;;;;;8.18;100.00;102026.63;8359613;28;20036;-63
2021/12/19 12:37:11;;;;;;;12.88;7.00;;;;;;;8.18;100.00;102025.72;8377499;28;20038;-63
2021/12/19 12:41:27;;;;;;;15.70;7.15;;;;;;;8.12;100.00;102020.69;8376822;28;20128;-63
2021/12/19 12:45:29;;;;;;;17.67;6.53;;;;;;;8.17;100.00;102024.00;8377001;28;20061;-63
2021/12/19 12:49:34;;;;;;;17.23;7.88;;;;;;;8.14;100.00;102008.88;8377004;28;20082;-63
2021/12/19 12:53:38;;;;;;;15.10;6.85;;;;;;;8.17;100.00;102008.69;8377237;28;20070;-64
2021/12/19 12:57:40;;;;;;;20.00;9.38;;;;;;;8.15;100.00;101996.28;8375883;28;20474;-64
2021/12/19 13:01:47;;;;;;;20.27;9.50;;;;;;;8.11;100.00;101992.88;8374818;28;20139;-63
2021/12/19 13:05:48;;;;;;;14.15;7.30;;;;;;;8.15;100.00;101988.19;8374835;28;20024;-63
2021/12/19 13:09:54;;;;;;;23.40;9.77;;;;;;;8.19;100.00;101984.34;8376122;28;20036;-63
2021/12/19 13:13:54;;;;;;;15.15;8.00;;;;;;;8.16;100.00;101984.53;8359840;28;20432;-63
2021/12/19 13:17:55;;;;;;;16.33;7.97;;;;;;;8.15;100.00;101988.19;8343474;28;20041;-63
2021/12/19 13:21:56;;;;;;;18.83;7.57;;;;;;;8.09;100.00;101982.19;8343610;28;20470;-63
2021/12/19 13:26:01;;;;;;;20.23;7.80;;;;;;;8.10;100.00;101975.00;8342035;28;20044;-63
2021/12/19 13:30:24;;;;;;;21.98;8.40;;;;;;;8.08;100.00;101960.75;8332538;28;20045;-64
2021/12/19 13:34:38;;;;;;;18.10;7.75;;;;;;;8.09;100.00;101955.25;8283158;28;20042;-63
2021/12/19 13:38:38;;;;;;;20.27;8.27;;;;;;;8.08;100.00;101956.22;8290942;28;20045;-63
2021/12/19 13:42:50;;;;;;;18.33;8.30;;;;;;;8.08;100.00;101956.22;8339939;28;20045;-64
2021/12/19 13:46:51;;;;;;;14.98;7.88;;;;;;;8.06;100.00;101950.06;8292074;28;20096;-63
2021/12/19 13:51:12;;;;;;;25.23;9.23;;;;;;;8.06;100.00;101952.75;8288777;28;20136;-63
2021/12/19 13:55:14;;;;;;;24.52;8.93;;;;;;;8.05;100.00;101956.41;8289913;28;20056;-63
2021/12/19 13:59:19;;;;;;;19.83;8.80;;;;;;;8.06;100.00;101954.59;8320799;28;20037;-62
2021/12/19 14:03:47;;;;;;;21.73;8.63;;;;;;;8.04;100.00;101954.69;8295447;28;20048;-63
2021/12/19 14:07:47;;;;;;;20.70;9.15;;;;;;;8.03;100.00;101941.31;8322640;28;20497;-63
2021/12/19 14:11:56;;;;;;;22.65;9.93;;;;;;;8.01;100.00;101944.09;8337727;28;20477;-63
2021/12/19 14:15:56;;;;;;;22.33;9.45;;;;;;;7.99;100.00;101940.59;8337447;28;20428;-63
2021/12/19 14:20:01;;;;;;;25.60;10.05;;;;;;;8.03;100.00;101936.75;8336867;28;20453;-63
2021/12/19 14:24:39;;;;;;;24.30;10.25;;;;;;;7.99;100.00;101937.91;8337494;28;20045;-63
2021/12/19 14:28:48;;;;;;;27.73;11.45;;;;;;;8.00;100.00;101936.94;8352992;28;20094;-63
2021/12/19 14:32:55;;;;;;;30.52;15.25;;;;;;;7.92;100.00;101923.09;8314476;28;20057;-63
2021/12/19 14:37:11;;;;;;;30.30;13.02;;;;;;;7.94;100.00;101937.31;8285334;28;20038;-63
2021/12/19 14:41:11;;;;;;;32.83;13.95;;;;;;;7.95;100.00;101933.69;8317539;28;20050;-63
2021/12/19 14:45:21;;;;;;;34.60;15.15;;;;;;;7.98;100.00;101928.13;8290809;28;20159;-63
2021/12/19 14:49:21;;;;;;;27.92;13.02;;;;;;;7.97;100.00;101920.97;8297533;28;20116;-63
2021/12/19 14:57:34;;;;;;;27.27;12.75;;;;;;;7.92;100.00;101916.81;8370324;27;20172;-63
2021/12/19 15:01:37;;;;;;;18.08;7.97;;;;;;;7.88;100.00;101912.56;8371863;28;20040;-63
2021/12/19 15:05:41;;;;;;;13.30;6.80;;;;;;;7.88;100.00;101921.53;8371849;28;20747;-63
2021/12/19 15:09:41;;;;;;;10.10;6.57;;;;;;;7.81;100.00;101920.13;8371082;28;20040;-63
2021/12/19 15:13:42;;;;;;;4.10;2.90;;;;;;;7.80;100.00;101907.63;8369496;28;20090;-63
2021/12/19 15:17:44;;;;;;;4.85;3.15;;;;;;;7.76;100.00;101916.84;8371461;28;20412;-63
2021/12/19 15:21:44;;;;;;;5.47;3.42;;;;;;;7.76;100.00;101903.41;8371381;28;20037;-63
2021/12/19 15:25:47;;;;;;;10.10;6.63;;;;;;;7.75;100.00;101904.34;8370813;28;20041;-63
2021/12/19 15:29:47;;;;;;;3.50;2.85;;;;;;;7.71;100.00;101900.09;8371376;28;20324;-63
2021/12/19 15:33:50;;;;;;;3.10;2.70;;;;;;;7.74;100.00;101891.84;8369725;28;20443;-63
2021/12/19 15:37:51;;;;;;;5.45;2.92;;;;;;;7.73;100.00;101895.50;8370660;28;20045;-63
2021/12/19 15:41:52;;;;;;;3.63;3.17;;;;;;;7.72;100.00;101892.91;8368870;28;20123;-63
2021/12/19 15:45:53;;;;;;;4.82;3.78;;;;;;;7.75;100.00;101893.56;8345026;28;20049;-63
2021/12/19 15:49:53;;;;;;;5.80;4.00;;;;;;;7.73;100.00;101895.50;8338958;28;20053;-63
2021/12/19 15:53:54;;;;;;;4.75;3.40;;;;;;;7.72;100.00;101891.06;8328704;28;20049;-63
2021/12/19 15:57:54;;;;;;;5.35;4.07;;;;;;;7.73;100.00;101894.63;8318867;28;20074;-63
2021/12/19 16:01:56;;;;;;;4.60;3.83;;;;;;;7.73;100.00;101890.13;8337812;28;20499;-63
2021/12/19 16:05:56;;;;;;;7.88;4.22;;;;;;;7.72;100.00;101888.34;8361459;28;20483;-63
2021/12/19 16:09:57;;;;;;;5.88;3.65;;;;;;;7.71;100.00;101885.75;8342119;28;20186;-63
2021/12/19 16:13:58;;;;;;;9.60;4.28;;;;;;;7.72;100.00;101872.22;8320564;28;20051;-63
2021/12/19 16:17:59;;;;;;;6.78;3.70;;;;;;;7.72;100.00;101876.75;8317158;28;20068;-63
2021/12/19 16:22:03;;;;;;;8.52;3.78;;;;;;;7.70;100.00;101874.16;8315678;28;20419;-63
2021/12/19 16:26:04;;;;;;;8.40;4.22;;;;;;;7.69;100.00;101872.38;8323490;28;20041;-63
2021/12/19 16:30:06;;;;;;;7.82;4.22;;;;;;;7.70;100.00;101862.50;8332084;28;20442;-63
2021/12/19 16:34:07;;;;;;;16.15;5.85;;;;;;;7.67;100.00;101863.56;8323706;28;20127;-63
2021/12/19 16:38:10;;;;;;;9.98;5.45;;;;;;;7.62;100.00;101854.88;8317870;28;20037;-64
2021/12/19 16:43:29;;;;;;;10.75;4.70;;;;;;;7.66;100.00;101861.81;8320760;28;20809;-64
2021/12/19 16:46:30;;;;;;;8.25;5.32;;;;;;;7.65;100.00;101865.47;8308736;28;20516;-63
2021/12/19 16:50:31;;;;;;;8.77;5.22;;;;;;;7.62;100.00;101860.25;8341101;28;20390;-63
2021/12/19 16:54:32;;;;;;;6.03;5.00;;;;;;;7.62;100.00;101860.25;8341125;28;20512;-63
2021/12/19 16:58:33;;;;;;;11.93;4.93;;;;;;;7.67;100.00;101863.56;8325442;28;20091;-64
2021/12/19 17:02:33;;;;;;;7.22;4.15;;;;;;;7.62;100.00;101859.38;8319380;28;20094;-64
2021/12/19 17:06:36;;;;;;;10.45;4.70;;;;;;;7.62;100.00;101860.25;8331653;28;20397;-64
2021/12/19 17:10:36;;;;;;;7.47;4.75;;;;;;;7.62;100.00;101860.25;8330745;28;20041;-65
2021/12/19 17:14:38;;;;;;;11.75;5.18;;;;;;;7.57;100.00;101859.63;8339388;28;20171;-64
2021/12/19 17:18:38;;;;;;;9.50;4.88;;;;;;;7.60;100.00;101850.53;8334650;28;20068;-64
2021/12/19 17:22:38;;;;;;;11.02;5.43;;;;;;;7.59;100.00;101843.41;8331617;28;20036;-64
2021/12/19 17:26:41;;;;;;;7.90;4.60;;;;;;;7.59;100.00;101849.66;8329155;28;20096;-64
2021/12/19 17:30:45;;;;;;;10.98;4.95;;;;;;;7.54;100.00;101857.13;8313471;28;20029;-64
2021/12/19 17:34:45;;;;;;;6.88;4.10;;;;;;;7.51;100.00;101845.69;8312453;28;20124;-63
2021/12/19 17:38:48;;;;;;;7.95;3.53;;;;;;;7.52;100.00;101837.53;8329803;28;20041;-63
2021/12/19 17:42:48;;;;;;;7.03;3.47;;;;;;;7.50;100.00;101828.66;8345308;28;20052;-63
2021/12/19 17:46:49;;;;;;;7.80;3.10;;;;;;;7.51;100.00;101835.78;8323904;28;20048;-63
2021/12/19 17:50:50;;;;;;;5.28;2.42;;;;;;;7.48;100.00;101827.88;8315865;28;20094;-63
2021/12/19 17:54:51;;;;;;;5.70;3.17;;;;;;;7.46;100.00;101827.13;8348050;28;20053;-63
2021/12/19 17:58:52;;;;;;;5.13;3.30;;;;;;;7.44;100.00;101828.19;8347665;28;20091;-63
2021/12/19 18:02:52;;;;;;;4.38;2.47;;;;;;;7.41;100.00;101813.06;8330805;28;20045;-63
2021/12/19 18:06:54;;;;;;;7.40;2.90;;;;;;;7.39;100.00;101817.69;8332355;28;20393;-63
2021/12/19 18:10:56;;;;;;;4.07;2.67;;;;;;;7.29;100.00;101797.63;8316207;28;20041;-63
2021/12/19 18:14:56;;;;;;;8.43;2.83;;;;;;;7.31;100.00;101811.88;8330180;28;20041;-63
2021/12/19 18:18:58;;;;;;;4.75;3.20;;;;;;;7.26;100.00;101813.94;8316073;28;20047;-63
2021/12/19 18:22:59;;;;;;;6.85;4.45;;;;;;;7.30;100.00;101815.53;8347156;28;20562;-63
2021/12/19 18:27:01;;;;;;;9.45;4.10;;;;;;;7.28;100.00;101812.03;8348657;28;20215;-63
2021/12/19 18:31:02;;;;;;;7.35;4.30;;;;;;;7.33;100.00;101809.97;8329813;28;20459;-63
2021/12/19 18:35:04;;;;;;;12.45;4.47;;;;;;;7.37;100.00;101810.63;8314756;28;20057;-63
2021/12/19 18:39:06;;;;;;;7.05;4.50;;;;;;;7.39;100.00;101798.84;8329648;28;20597;-63
2021/12/19 18:43:16;;;;;;;10.23;5.25;;;;;;;7.40;100.00;101795.19;8338937;28;20473;-63
2021/12/19 18:47:29;;;;;;;9.32;4.78;;;;;;;7.38;100.00;101802.47;8295680;28;20037;-63
2021/12/19 18:51:48;;;;;;;4.73;3.67;;;;;;;7.40;100.00;101795.19;8295911;28;20045;-63
2021/12/19 18:55:55;;;;;;;11.40;4.25;;;;;;;7.42;100.00;101793.28;8340186;28;20095;-63
2021/12/19 18:59:56;;;;;;;9.40;4.20;;;;;;;7.41;100.00;101804.13;8320033;28;20051;-65
2021/12/19 19:04:08;;;;;;;6.18;3.70;;;;;;;7.42;100.00;101806.75;8312812;28;20080;-65
2021/12/19 19:08:09;;;;;;;9.80;3.55;;;;;;;7.46;100.00;101804.72;8318485;28;20044;-65
2021/12/19 19:12:12;;;;;;;7.15;4.05;;;;;;;7.43;100.00;101799.53;8308503;28;20095;-65
2021/12/19 19:16:12;;;;;;;12.68;5.35;;;;;;;7.45;100.00;101801.19;8319249;28;20420;-65
2021/12/19 19:20:13;;;;;;;8.27;5.63;;;;;;;7.43;100.00;101800.41;8309396;28;20063;-65
2021/12/19 19:24:15;;;;;;;14.90;6.97;;;;;;;7.45;100.00;101795.81;8326270;28;20106;-65
2021/12/19 19:28:16;;;;;;;12.32;6.07;;;;;;;7.47;100.00;101795.69;8334325;28;20045;-65
2021/12/19 19:32:16;;;;;;;19.00;8.10;;;;;;;7.43;100.00;101788.75;8328018;28;20086;-65
2021/12/19 19:36:17;;;;;;;15.57;8.18;;;;;;;7.45;100.00;101793.13;8321267;28;20418;-65
2021/12/19 19:41:37;;;;;;;15.15;7.45;;;;;;;7.47;100.00;101795.69;8342603;28;20036;-65
2021/12/19 19:49:08;;;;;;;21.50;7.43;;;;;;;7.49;100.00;101789.28;8303887;28;20776;-65
2021/12/19 19:53:10;;;;;;;;;;;;;;;7.45;100.00;101794.94;8287586;28;20049;-65